createdAt,value
2018-07-13T00:01:53.370Z,9.93
2018-07-13T00:04:21.172Z,10.00
2018-07-13T00:06:48.987Z,10.03
2018-07-13T00:09:17.209Z,10.63
2018-07-13T00:11:45.092Z,8.23
2018-07-13T00:14:22.696Z,11.97
2018-07-13T00:16:51.849Z,10.63
2018-07-13T00:19:20.405Z,12.60
2018-07-13T00:21:48.285Z,11.40
2018-07-13T00:24:16.084Z,9.27
2018-07-13T00:26:43.959Z,8.03
2018-07-13T00:29:12.015Z,13.23
2018-07-13T00:31:40.998Z,10.77
2018-07-13T00:34:08.957Z,12.87
2018-07-13T00:36:45.253Z,13.63
2018-07-13T00:39:15.609Z,13.07
2018-07-13T00:41:43.508Z,13.30
2018-07-13T00:44:11.865Z,13.00
2018-07-13T00:46:39.832Z,13.77
2018-07-13T00:49:07.685Z,13.50
2018-07-13T00:51:35.443Z,13.97
2018-07-13T00:54:03.257Z,14.70
2018-07-13T00:56:31.116Z,15.00
2018-07-13T00:58:59.350Z,12.57
2018-07-13T01:01:27.253Z,14.23
2018-07-13T01:03:55.149Z,15.23
2018-07-13T01:06:23.067Z,14.70
2018-07-13T01:08:50.910Z,16.00
2018-07-13T01:11:18.893Z,16.37
2018-07-13T01:13:46.738Z,16.00
2018-07-13T01:16:14.790Z,16.77
2018-07-13T01:18:43.847Z,15.50
2018-07-13T01:21:11.624Z,16.17
2018-07-13T01:23:39.482Z,17.33
2018-07-13T01:26:07.277Z,12.50
2018-07-13T01:28:35.042Z,16.30
2018-07-13T01:31:02.909Z,13.00
2018-07-13T01:33:30.809Z,16.67
2018-07-13T01:35:58.618Z,17.33
2018-07-13T01:38:26.484Z,16.37
2018-07-13T01:40:54.356Z,17.63
2018-07-13T01:43:22.165Z,14.10
2018-07-13T01:45:50.046Z,16.40
2018-07-13T01:48:18.445Z,16.73
2018-07-13T01:50:46.256Z,20.30
2018-07-13T01:53:14.069Z,14.47
2018-07-13T01:55:42.086Z,16.97
2018-07-13T01:58:09.872Z,19.03
2018-07-13T02:00:37.733Z,20.30
2018-07-13T02:03:05.778Z,19.30
2018-07-13T02:05:33.661Z,18.07
2018-07-13T02:08:01.536Z,18.40
2018-07-13T02:10:29.354Z,18.00
2018-07-13T02:12:57.211Z,20.20
2018-07-13T02:15:25.093Z,19.37
2018-07-13T02:17:52.899Z,19.70
2018-07-13T02:20:20.761Z,19.77
2018-07-13T02:22:48.626Z,21.90
2018-07-13T02:25:16.527Z,19.90
2018-07-13T02:27:44.381Z,20.13
2018-07-13T02:30:12.188Z,21.87
2018-07-13T02:32:40.086Z,21.33
2018-07-13T02:35:07.921Z,21.33
2018-07-13T02:37:35.817Z,21.40
2018-07-13T02:40:03.874Z,20.80
2018-07-13T02:42:31.748Z,21.70
2018-07-13T02:44:59.590Z,20.87
2018-07-13T02:47:27.469Z,23.03
2018-07-13T02:49:55.330Z,20.23
2018-07-13T02:52:23.205Z,22.87
2018-07-13T02:54:51.057Z,22.20
2018-07-13T02:57:18.933Z,22.80
2018-07-13T02:59:46.777Z,22.60
2018-07-13T03:02:14.585Z,22.83
2018-07-13T03:04:42.386Z,21.70
2018-07-13T03:07:10.153Z,21.57
2018-07-13T03:09:37.922Z,21.57
2018-07-13T03:12:05.795Z,21.97
2018-07-13T03:14:33.647Z,19.80
2018-07-13T03:17:01.469Z,19.80
2018-07-13T03:19:29.269Z,21.47
2018-07-13T03:21:57.166Z,21.13
2018-07-13T03:24:24.949Z,20.53
2018-07-13T03:26:52.854Z,21.57
2018-07-13T03:29:20.777Z,24.50
2018-07-13T03:31:48.642Z,27.20
2018-07-13T03:34:16.543Z,26.27
2018-07-13T03:36:44.268Z,29.30
2018-07-13T03:39:12.085Z,29.80
2018-07-13T03:41:39.941Z,30.00
2018-07-13T03:44:07.791Z,27.60
2018-07-13T03:46:35.611Z,25.53
2018-07-13T03:49:03.522Z,20.47
2018-07-13T03:51:31.336Z,22.50
2018-07-13T03:53:59.249Z,22.87
2018-07-13T03:56:27.185Z,22.60
2018-07-13T03:58:55.069Z,21.43
2018-07-13T04:01:22.913Z,23.73
2018-07-13T04:03:50.804Z,22.77
2018-07-13T04:06:18.528Z,23.43
2018-07-13T04:08:46.361Z,23.50
2018-07-13T04:11:14.291Z,23.60
2018-07-13T04:13:42.151Z,23.07
2018-07-13T04:16:10.056Z,22.20
2018-07-13T04:18:37.956Z,24.23
2018-07-13T04:21:06.013Z,17.63
2018-07-13T04:23:33.897Z,24.67
2018-07-13T04:26:01.763Z,23.83
2018-07-13T04:28:29.697Z,24.53
2018-07-13T04:30:57.585Z,24.57
2018-07-13T04:33:25.389Z,24.50
2018-07-13T04:35:53.266Z,24.53
2018-07-13T04:38:21.151Z,25.40
2018-07-13T04:40:49.090Z,21.37
2018-07-13T04:43:16.937Z,24.47
2018-07-13T04:45:44.830Z,23.97
2018-07-13T04:48:12.776Z,24.10
2018-07-13T04:50:40.632Z,22.77
2018-07-13T04:53:08.570Z,22.80
2018-07-13T04:55:36.579Z,20.57
2018-07-13T04:58:04.493Z,21.03
2018-07-13T05:00:32.474Z,19.33
2018-07-13T05:03:00.392Z,19.77
2018-07-13T05:05:28.320Z,19.47
2018-07-13T05:07:56.273Z,18.23
2018-07-13T05:10:24.150Z,18.13
2018-07-13T05:12:52.090Z,18.20
2018-07-13T05:15:20.776Z,18.43
2018-07-13T05:17:48.728Z,17.80
2018-07-13T05:20:16.609Z,16.87
2018-07-13T05:22:44.588Z,16.77
2018-07-13T05:25:12.669Z,15.33
2018-07-13T05:27:40.801Z,18.00
2018-07-13T05:30:08.694Z,16.90
2018-07-13T05:32:36.809Z,16.00
2018-07-13T05:35:04.748Z,15.17
2018-07-13T05:37:32.731Z,15.30
2018-07-13T05:40:02.271Z,15.77
2018-07-13T05:42:30.118Z,15.03
2018-07-13T05:44:58.102Z,15.40
2018-07-13T05:47:26.160Z,14.03
2018-07-13T05:49:54.089Z,15.30
2018-07-13T05:52:22.041Z,15.23
2018-07-13T05:54:50.008Z,13.97
2018-07-13T05:57:17.902Z,15.03
2018-07-13T05:59:45.860Z,13.50
2018-07-13T06:02:13.763Z,12.97
2018-07-13T06:04:41.733Z,13.63
2018-07-13T06:07:09.709Z,11.87
2018-07-13T06:09:37.683Z,12.50
2018-07-13T06:12:06.489Z,13.27
2018-07-13T06:14:34.380Z,11.90
2018-07-13T06:17:02.187Z,11.17
2018-07-13T06:19:30.038Z,11.93
2018-07-13T06:21:57.936Z,12.50
2018-07-13T06:24:25.853Z,11.10
2018-07-13T06:26:53.790Z,12.20
2018-07-13T06:29:21.818Z,11.83
2018-07-13T06:31:49.701Z,11.93
2018-07-13T06:34:17.688Z,11.73
2018-07-13T06:36:45.777Z,11.50
2018-07-13T06:39:13.770Z,10.83
2018-07-13T06:41:41.952Z,10.90
2018-07-13T06:44:09.784Z,10.80
2018-07-13T06:46:43.656Z,10.17
2018-07-13T06:49:11.581Z,10.17
2018-07-13T06:51:39.623Z,10.77
2018-07-13T06:54:08.201Z,10.23
2018-07-13T06:56:36.132Z,9.80
2018-07-13T06:59:19.052Z,9.73
2018-07-13T07:01:47.833Z,9.40
2018-07-13T07:04:38.258Z,9.63
2018-07-13T07:07:14.187Z,9.30
2018-07-13T07:09:59.953Z,8.67
2018-07-13T07:12:53.789Z,9.53
2018-07-13T07:15:22.758Z,9.37
2018-07-13T07:17:51.019Z,9.13
2018-07-13T07:20:18.901Z,9.43
2018-07-13T07:22:47.617Z,9.27
2018-07-13T07:25:15.964Z,8.63
2018-07-13T07:27:44.505Z,8.10
2018-07-13T07:30:12.635Z,8.93
2018-07-13T07:32:40.538Z,7.80
2018-07-13T07:35:08.862Z,7.17
2018-07-13T07:37:36.840Z,8.67
2018-07-13T07:40:05.077Z,7.30
2018-07-13T07:42:33.344Z,7.50
2018-07-13T07:45:01.373Z,8.47
2018-07-13T07:47:29.265Z,7.00
2018-07-13T07:49:57.227Z,7.10
2018-07-13T07:52:25.097Z,6.83
2018-07-13T07:54:53.100Z,6.67
2018-07-13T07:57:20.990Z,6.57
2018-07-13T07:59:48.941Z,6.07
2018-07-13T08:02:16.910Z,6.57
2018-07-13T08:04:44.956Z,5.93
2018-07-13T08:07:13.081Z,6.40
2018-07-13T08:09:40.665Z,6.17
2018-07-13T08:12:08.641Z,5.73
2018-07-13T08:14:36.569Z,6.03
2018-07-13T08:17:04.417Z,5.30
2018-07-13T08:19:32.279Z,5.00
2018-07-13T08:22:08.415Z,5.40
2018-07-13T08:24:36.285Z,6.43
2018-07-13T08:27:04.742Z,4.50
2018-07-13T08:29:36.702Z,5.67
2018-07-13T08:32:04.897Z,5.10
2018-07-13T08:34:32.753Z,5.23
2018-07-13T08:37:00.622Z,5.73
2018-07-13T08:39:28.519Z,5.00
2018-07-13T08:41:56.456Z,5.00
2018-07-13T08:44:24.390Z,5.17
2018-07-13T08:46:52.459Z,5.23
2018-07-13T08:49:20.362Z,5.37
2018-07-13T08:51:48.352Z,5.47
2018-07-13T08:54:16.317Z,5.00
2018-07-13T08:56:44.318Z,5.33
2018-07-13T08:59:12.245Z,4.93
2018-07-13T09:01:40.157Z,5.23
2018-07-13T09:04:08.054Z,5.07
2018-07-13T09:06:36.529Z,4.60
2018-07-13T09:09:11.001Z,5.47
2018-07-13T09:11:39.125Z,5.30
2018-07-13T09:14:07.104Z,6.00
2018-07-13T09:16:35.150Z,4.90
2018-07-13T09:19:03.157Z,4.67
2018-07-13T09:21:31.096Z,4.40
2018-07-13T09:23:59.429Z,5.13
2018-07-13T09:26:27.821Z,5.10
2018-07-13T09:28:55.992Z,4.23
2018-07-13T09:31:24.012Z,4.77
2018-07-13T09:33:52.133Z,5.17
2018-07-13T09:36:20.027Z,5.03
2018-07-13T09:38:48.084Z,4.40
2018-07-13T09:41:16.065Z,4.87
2018-07-13T09:43:44.049Z,5.43
2018-07-13T09:46:11.998Z,5.20
2018-07-13T09:48:39.997Z,4.70
2018-07-13T09:51:07.877Z,4.40
2018-07-13T09:53:36.405Z,4.27
2018-07-13T09:56:04.374Z,4.80
2018-07-13T09:58:37.366Z,4.53
2018-07-13T10:01:11.593Z,4.60
2018-07-13T10:03:39.489Z,4.50
2018-07-13T10:06:07.385Z,3.83
2018-07-13T10:08:35.528Z,4.20
2018-07-13T10:11:03.489Z,4.40
2018-07-13T10:13:31.522Z,4.40
2018-07-13T10:16:00.263Z,4.03
2018-07-13T10:18:28.257Z,3.73
2018-07-13T10:20:57.929Z,3.97
2018-07-13T10:23:26.366Z,3.40
2018-07-13T10:26:02.578Z,3.80
2018-07-13T10:28:31.727Z,3.87
2018-07-13T10:31:00.271Z,3.90
2018-07-13T10:33:28.219Z,3.33
2018-07-13T10:35:57.317Z,3.33
2018-07-13T10:38:25.258Z,3.13
2018-07-13T10:40:53.142Z,3.00
2018-07-13T10:43:21.022Z,3.00
2018-07-13T10:45:49.051Z,3.40
2018-07-13T10:48:17.534Z,3.00
2018-07-13T10:50:45.350Z,2.87
2018-07-13T10:53:13.437Z,2.80
2018-07-13T10:55:41.367Z,2.93
2018-07-13T10:58:09.228Z,3.03
2018-07-13T11:00:37.084Z,2.15
2018-07-13T11:03:04.905Z,2.60
2018-07-13T11:05:32.730Z,2.40
2018-07-13T11:08:00.648Z,2.27
2018-07-13T11:10:28.474Z,2.30
2018-07-13T11:12:56.327Z,2.35
2018-07-13T11:15:24.190Z,2.12
2018-07-13T11:17:52.089Z,2.02
2018-07-13T11:20:19.913Z,2.30
2018-07-13T11:22:47.854Z,2.50
2018-07-13T11:25:15.679Z,2.47
2018-07-13T11:27:43.572Z,2.50
2018-07-13T11:30:11.529Z,2.60
2018-07-13T11:32:39.325Z,2.10
2018-07-13T11:35:07.319Z,2.52
2018-07-13T11:37:37.219Z,1.95
2018-07-13T11:40:05.389Z,2.42
2018-07-13T11:42:33.212Z,2.33
2018-07-13T11:45:01.117Z,2.35
2018-07-13T11:47:28.966Z,2.70
2018-07-13T11:49:56.873Z,2.50
2018-07-13T11:52:24.737Z,2.40
2018-07-13T11:54:52.665Z,2.20
2018-07-13T11:57:20.461Z,2.10
2018-07-13T11:59:48.303Z,2.10
2018-07-13T12:02:16.102Z,2.37
2018-07-13T12:04:43.917Z,2.00
2018-07-13T12:07:11.801Z,2.08
2018-07-13T12:09:39.586Z,2.02
2018-07-13T12:12:07.476Z,2.58
2018-07-13T12:14:35.345Z,2.27
2018-07-13T12:17:03.152Z,2.08
2018-07-13T12:19:30.968Z,2.55
2018-07-13T12:21:58.837Z,2.25
2018-07-13T12:24:26.687Z,2.00
2018-07-13T12:26:54.536Z,1.95
2018-07-13T12:29:22.377Z,2.42
2018-07-13T12:31:50.168Z,2.08
2018-07-13T12:34:18.016Z,2.10
2018-07-13T12:36:45.869Z,2.37
2018-07-13T12:39:13.751Z,2.58
2018-07-13T12:41:41.632Z,2.10
2018-07-13T12:44:09.530Z,2.35
2018-07-13T12:46:37.333Z,2.42
2018-07-13T12:49:05.228Z,2.35
2018-07-13T12:51:33.601Z,3.22
2018-07-13T12:54:01.558Z,2.27
2018-07-13T12:56:29.261Z,2.25
2018-07-13T12:58:57.052Z,2.20
2018-07-13T13:01:24.984Z,1.98
2018-07-13T13:03:52.793Z,2.27
2018-07-13T13:06:20.621Z,2.20
2018-07-13T13:08:48.377Z,2.30
2018-07-13T13:11:16.276Z,2.33
2018-07-13T13:13:44.156Z,2.02
2018-07-13T13:16:12.377Z,2.10
2018-07-13T13:18:40.181Z,2.47
2018-07-13T13:21:08.062Z,2.50
2018-07-13T13:23:35.920Z,2.27
2018-07-13T13:26:03.737Z,2.60
2018-07-13T13:28:31.521Z,2.23
2018-07-13T13:30:59.457Z,2.80
2018-07-13T13:33:27.330Z,2.17
2018-07-13T13:35:55.125Z,2.30
2018-07-13T13:38:23.025Z,2.10
2018-07-13T13:40:51.194Z,2.33
2018-07-13T13:43:19.041Z,2.33
2018-07-13T13:45:46.797Z,2.50
2018-07-13T13:48:14.626Z,2.40
2018-07-13T13:50:42.502Z,2.90
2018-07-13T13:53:10.330Z,2.27
2018-07-13T13:55:38.229Z,2.33
2018-07-13T13:58:06.039Z,2.60
2018-07-13T14:00:33.973Z,2.43
2018-07-13T14:03:01.818Z,2.37
2018-07-13T14:05:30.452Z,2.50
2018-07-13T14:07:58.245Z,2.70
2018-07-13T14:10:26.177Z,2.60
2018-07-13T14:12:54.065Z,2.73
2018-07-13T14:15:21.941Z,2.80
2018-07-13T14:17:49.806Z,2.80
2018-07-13T14:20:17.699Z,2.50
2018-07-13T14:22:45.608Z,2.77
2018-07-13T14:25:13.457Z,2.70
2018-07-13T14:27:41.355Z,3.03
2018-07-13T14:30:09.243Z,3.03
2018-07-13T14:32:37.078Z,2.87
2018-07-13T14:35:05.264Z,2.90
2018-07-13T14:37:33.174Z,2.77
2018-07-13T14:40:01.162Z,3.27
2018-07-13T14:42:29.168Z,2.90
2018-07-13T14:44:57.082Z,3.17
2018-07-13T14:47:24.945Z,3.50
2018-07-13T14:49:52.841Z,3.40
2018-07-13T14:52:20.775Z,4.20
2018-07-13T14:54:48.685Z,3.20
2018-07-13T14:57:16.560Z,3.27
2018-07-13T14:59:44.589Z,3.00
2018-07-13T15:02:12.404Z,3.37
2018-07-13T15:04:40.365Z,2.80
2018-07-13T15:07:08.227Z,2.50
2018-07-13T15:09:36.126Z,2.53
2018-07-13T15:12:03.982Z,2.53
2018-07-13T15:14:31.781Z,2.90
2018-07-13T15:16:59.644Z,2.50
2018-07-13T15:19:27.517Z,2.70
2018-07-13T15:21:55.366Z,2.73
2018-07-13T15:24:24.073Z,2.50
2018-07-13T15:26:51.897Z,2.23
2018-07-13T15:29:19.810Z,2.20
2018-07-13T15:31:47.586Z,2.23
2018-07-13T15:34:15.529Z,2.17
2018-07-13T15:36:43.385Z,2.37
2018-07-13T15:39:11.260Z,2.30
2018-07-13T15:41:39.145Z,2.23
2018-07-13T15:44:06.972Z,2.40
2018-07-13T15:46:34.740Z,2.70
2018-07-13T15:49:02.541Z,3.27
2018-07-13T15:51:30.407Z,3.13
2018-07-13T15:53:58.328Z,2.30
2018-07-13T15:56:26.189Z,2.90
2018-07-13T15:58:54.108Z,2.90
2018-07-13T16:01:21.942Z,3.03
2018-07-13T16:03:49.767Z,2.80
2018-07-13T16:06:17.602Z,2.27
2018-07-13T16:08:45.464Z,2.30
2018-07-13T16:11:13.317Z,2.47
2018-07-13T16:13:41.237Z,2.17
2018-07-13T16:16:09.095Z,2.50
2018-07-13T16:18:36.916Z,2.67
2018-07-13T16:21:04.761Z,2.47
2018-07-13T16:23:32.569Z,2.87
2018-07-13T16:26:00.447Z,2.30
2018-07-13T16:28:28.307Z,2.60
2018-07-13T16:30:56.183Z,2.40
2018-07-13T16:33:24.043Z,2.57
2018-07-13T16:35:51.944Z,2.87
2018-07-13T16:38:19.868Z,2.30
2018-07-13T16:40:47.774Z,2.30
2018-07-13T16:43:15.680Z,2.43
2018-07-13T16:45:43.529Z,2.40
2018-07-13T16:48:11.386Z,2.20
2018-07-13T16:50:39.293Z,2.40
2018-07-13T16:53:07.085Z,2.63
2018-07-13T16:55:35.029Z,2.67
2018-07-13T16:58:02.888Z,2.53
2018-07-13T17:00:30.726Z,2.90
2018-07-13T17:02:58.629Z,2.43
2018-07-13T17:05:26.489Z,2.57
2018-07-13T17:07:54.269Z,2.53
2018-07-13T17:10:22.051Z,2.40
2018-07-13T17:12:49.856Z,2.37
2018-07-13T17:15:17.655Z,2.57
2018-07-13T17:17:45.446Z,2.60
2018-07-13T17:20:13.345Z,3.03
2018-07-13T17:22:41.046Z,3.30
2018-07-13T17:25:08.876Z,2.87
2018-07-13T17:27:36.744Z,2.87
2018-07-13T17:30:05.873Z,3.20
2018-07-13T17:32:33.735Z,2.93
2018-07-13T17:35:01.493Z,3.00
2018-07-13T17:37:29.291Z,2.90
2018-07-13T17:39:57.010Z,2.63
2018-07-13T17:42:24.856Z,3.07
2018-07-13T17:44:52.628Z,2.77
2018-07-13T17:47:20.419Z,2.57
2018-07-13T17:49:48.235Z,2.50
2018-07-13T17:52:16.091Z,2.77
2018-07-13T17:54:43.927Z,2.73
2018-07-13T17:57:11.744Z,2.90
2018-07-13T17:59:39.603Z,2.60
2018-07-13T18:02:07.463Z,2.90
2018-07-13T18:04:35.251Z,2.70
2018-07-13T18:07:03.026Z,2.80
2018-07-13T18:09:30.857Z,2.87
2018-07-13T18:11:58.735Z,2.97
2018-07-13T18:14:26.467Z,2.70
2018-07-13T18:16:54.276Z,2.90
2018-07-13T18:19:22.061Z,2.80
2018-07-13T18:21:49.811Z,2.80
2018-07-13T18:24:17.556Z,3.00
2018-07-13T18:26:45.339Z,2.93
2018-07-13T18:29:13.132Z,3.17
2018-07-13T18:31:41.123Z,2.80
2018-07-13T18:34:08.952Z,3.20
2018-07-13T18:36:36.816Z,3.37
2018-07-13T18:39:05.203Z,3.00
2018-07-13T18:41:33.127Z,3.00
2018-07-13T18:44:00.992Z,3.17
2018-07-13T18:46:28.784Z,2.83
2018-07-13T18:48:56.584Z,2.70
2018-07-13T18:51:24.402Z,3.20
2018-07-13T18:53:52.171Z,3.50
2018-07-13T18:56:19.995Z,3.00
2018-07-13T18:58:47.919Z,3.40
2018-07-13T19:01:15.641Z,3.57
2018-07-13T19:03:43.460Z,3.10
2018-07-13T19:06:11.319Z,3.83
2018-07-13T19:08:39.430Z,3.50
2018-07-13T19:11:07.222Z,4.30
2018-07-13T19:13:35.064Z,3.87
2018-07-13T19:16:02.912Z,4.17
2018-07-13T19:18:31.145Z,4.07
2018-07-13T19:20:58.875Z,3.70
2018-07-13T19:23:26.636Z,4.20
2018-07-13T19:25:54.427Z,3.93
2018-07-13T19:28:22.241Z,4.03
2018-07-13T19:30:50.037Z,3.93
2018-07-13T19:33:17.899Z,3.97
2018-07-13T19:35:45.728Z,4.40
2018-07-13T19:38:13.514Z,3.73
2018-07-13T19:40:41.355Z,3.70
2018-07-13T19:43:09.195Z,3.70
2018-07-13T19:45:37.863Z,3.87
2018-07-13T19:48:05.947Z,4.10
2018-07-13T19:50:33.879Z,4.40
2018-07-13T19:53:01.639Z,4.57
2018-07-13T19:55:29.746Z,4.83
2018-07-13T19:57:58.271Z,4.80
2018-07-13T20:00:27.126Z,4.87
2018-07-13T20:02:55.004Z,5.00
2018-07-13T20:05:25.384Z,4.40
2018-07-13T20:07:55.533Z,4.80
2018-07-13T20:10:25.719Z,4.70
2018-07-13T20:12:53.547Z,4.33
2018-07-13T20:15:21.387Z,6.27
2018-07-13T20:17:49.170Z,4.80
2018-07-13T20:20:16.959Z,5.23
2018-07-13T20:22:44.815Z,6.67
2018-07-13T20:25:12.671Z,4.60
2018-07-13T20:27:40.439Z,4.73
2018-07-13T20:30:09.261Z,4.40
2018-07-13T20:32:37.112Z,4.67
2018-07-13T20:35:05.044Z,4.97
2018-07-13T20:37:32.912Z,4.83
2018-07-13T20:40:00.763Z,5.13
2018-07-13T20:42:29.026Z,5.90
2018-07-13T20:44:56.835Z,6.80
2018-07-13T20:47:24.683Z,6.40
2018-07-13T20:49:52.451Z,6.10
2018-07-13T20:52:20.280Z,6.13
2018-07-13T20:54:48.019Z,6.17
2018-07-13T20:57:19.847Z,5.67
2018-07-13T20:59:48.501Z,5.10
2018-07-13T21:02:16.332Z,4.60
2018-07-13T21:04:44.159Z,4.40
2018-07-13T21:07:12.370Z,4.20
2018-07-13T21:09:40.127Z,4.40
2018-07-13T21:12:07.967Z,4.13
2018-07-13T21:14:35.772Z,4.37
2018-07-13T21:17:03.647Z,4.00
2018-07-13T21:19:31.421Z,4.17
2018-07-13T21:21:59.319Z,3.73
2018-07-13T21:24:27.155Z,4.13
2018-07-13T21:26:55.029Z,4.23
2018-07-13T21:29:23.067Z,4.20
2018-07-13T21:31:54.747Z,4.83
2018-07-13T21:34:22.916Z,4.33
2018-07-13T21:36:50.716Z,4.80
2018-07-13T21:39:18.522Z,4.33
2018-07-13T21:41:46.307Z,4.93
2018-07-13T21:44:14.258Z,4.67
2018-07-13T21:46:42.372Z,4.57
2018-07-13T21:49:12.760Z,4.73
2018-07-13T21:51:43.607Z,4.60
2018-07-13T21:54:11.444Z,4.40
2018-07-13T21:56:39.228Z,5.07
2018-07-13T21:59:07.721Z,4.37
2018-07-13T22:01:35.605Z,4.63
2018-07-13T22:04:03.528Z,4.73
2018-07-13T22:06:31.438Z,4.70
2018-07-13T22:08:59.207Z,4.93
2018-07-13T22:11:27.071Z,4.83
2018-07-13T22:13:54.887Z,4.90
2018-07-13T22:16:22.748Z,4.67
2018-07-13T22:18:50.552Z,4.60
2018-07-13T22:21:18.279Z,4.83
2018-07-13T22:23:46.136Z,4.97
2018-07-13T22:26:13.888Z,4.53
2018-07-13T22:28:41.720Z,4.97
2018-07-13T22:31:09.591Z,4.70
2018-07-13T22:33:37.391Z,4.87
2018-07-13T22:36:05.280Z,4.83
2018-07-13T22:38:33.104Z,5.40
2018-07-13T22:41:00.911Z,5.37
2018-07-13T22:43:29.127Z,5.57
2018-07-13T22:45:57.132Z,5.20
2018-07-13T22:48:24.955Z,5.13
2018-07-13T22:50:52.739Z,4.97
2018-07-13T22:53:20.520Z,5.47
2018-07-13T22:55:48.439Z,5.30
2018-07-13T22:58:16.211Z,5.83
2018-07-13T23:00:44.035Z,5.60
2018-07-13T23:03:11.944Z,4.90
2018-07-13T23:05:39.706Z,5.10
2018-07-13T23:08:07.504Z,5.23
2018-07-13T23:10:35.285Z,5.90
2018-07-13T23:13:03.147Z,5.10
2018-07-13T23:15:31.041Z,5.07
2018-07-13T23:17:58.738Z,5.33
2018-07-13T23:20:26.588Z,5.70
2018-07-13T23:22:54.440Z,5.43
2018-07-13T23:25:22.315Z,6.23
2018-07-13T23:27:50.125Z,6.93
2018-07-13T23:30:17.947Z,6.07
2018-07-13T23:32:45.795Z,5.80
2018-07-13T23:35:13.619Z,5.70
2018-07-13T23:37:41.387Z,5.60
2018-07-13T23:40:09.227Z,5.83
2018-07-13T23:42:37.123Z,5.57
2018-07-13T23:45:04.932Z,5.07
2018-07-13T23:47:32.771Z,5.10
2018-07-13T23:50:00.543Z,5.37
2018-07-13T23:52:28.375Z,5.80
2018-07-13T23:54:56.291Z,5.17
2018-07-13T23:57:24.083Z,4.80
2018-07-13T23:59:51.830Z,4.50
